sensor_id;sensor_type;location;lat;lon;timestamp;temperature;humidity
43089;DHT22;28709;52.030;5.652;2022-11-20T00:02:19;-2.30;99.90
43089;DHT22;28709;52.030;5.652;2022-11-20T00:04:44;-2.30;99.90
43089;DHT22;28709;52.030;5.652;2022-11-20T00:07:10;-2.30;99.90
43089;DHT22;28709;52.030;5.652;2022-11-20T00:09:36;-2.30;99.90
43089;DHT22;28709;52.030;5.652;2022-11-20T00:12:01;-2.40;99.90
43089;DHT22;28709;52.030;5.652;2022-11-20T00:14:27;-2.40;99.90
43089;DHT22;28709;52.030;5.652;2022-11-20T00:16:52;-2.40;99.90
43089;DHT22;28709;52.030;5.652;2022-11-20T00:19:18;-2.40;99.90
43089;DHT22;28709;52.030;5.652;2022-11-20T00:21:44;-2.40;99.90
43089;DHT22;28709;52.030;5.652;2022-11-20T00:24:09;-2.40;99.90
43089;DHT22;28709;52.030;5.652;2022-11-20T00:26:38;-2.50;99.90
43089;DHT22;28709;52.030;5.652;2022-11-20T00:29:04;-2.40;99.90
43089;DHT22;28709;52.030;5.652;2022-11-20T00:31:30;-2.50;99.90
43089;DHT22;28709;52.030;5.652;2022-11-20T00:33:56;-2.50;99.90
43089;DHT22;28709;52.030;5.652;2022-11-20T00:36:24;-2.50;99.90
43089;DHT22;28709;52.030;5.652;2022-11-20T00:38:55;-2.50;99.90
43089;DHT22;28709;52.030;5.652;2022-11-20T00:41:21;-2.50;99.90
43089;DHT22;28709;52.030;5.652;2022-11-20T00:43:47;-2.50;99.90
43089;DHT22;28709;52.030;5.652;2022-11-20T00:48:39;-2.50;99.90
43089;DHT22;28709;52.030;5.652;2022-11-20T00:51:05;-2.60;99.90
43089;DHT22;28709;52.030;5.652;2022-11-20T00:53:31;-2.60;99.90
43089;DHT22;28709;52.030;5.652;2022-11-20T00:56:00;-2.60;99.90
43089;DHT22;28709;52.030;5.652;2022-11-20T00:58:30;-2.70;99.90
43089;DHT22;28709;52.030;5.652;2022-11-20T01:03:35;-2.70;99.90
43089;DHT22;28709;52.030;5.652;2022-11-20T01:06:15;-2.70;99.90
43089;DHT22;28709;52.030;5.652;2022-11-20T01:08:41;-2.70;99.90
43089;DHT22;28709;52.030;5.652;2022-11-20T01:11:11;-2.80;99.90
43089;DHT22;28709;52.030;5.652;2022-11-20T01:13:38;-2.90;99.90
43089;DHT22;28709;52.030;5.652;2022-11-20T01:16:08;-2.90;99.90
43089;DHT22;28709;52.030;5.652;2022-11-20T01:18:35;-3.00;99.90
43089;DHT22;28709;52.030;5.652;2022-11-20T01:21:03;-3.00;99.90
43089;DHT22;28709;52.030;5.652;2022-11-20T01:23:34;-3.10;99.90
43089;DHT22;28709;52.030;5.652;2022-11-20T01:26:05;-3.00;99.90
43089;DHT22;28709;52.030;5.652;2022-11-20T01:28:30;-3.00;99.90
43089;DHT22;28709;52.030;5.652;2022-11-20T01:30:57;-3.00;99.90
43089;DHT22;28709;52.030;5.652;2022-11-20T01:33:22;-3.00;99.90
43089;DHT22;28709;52.030;5.652;2022-11-20T01:35:48;-3.00;99.90
43089;DHT22;28709;52.030;5.652;2022-11-20T01:38:16;-3.00;99.90
43089;DHT22;28709;52.030;5.652;2022-11-20T01:40:42;-3.00;99.90
43089;DHT22;28709;52.030;5.652;2022-11-20T01:43:17;-3.00;99.90
43089;DHT22;28709;52.030;5.652;2022-11-20T01:46:03;-3.00;99.90
43089;DHT22;28709;52.030;5.652;2022-11-20T01:48:36;-3.00;99.90
43089;DHT22;28709;52.030;5.652;2022-11-20T01:51:04;-3.00;99.90
43089;DHT22;28709;52.030;5.652;2022-11-20T01:53:34;-3.10;99.90
43089;DHT22;28709;52.030;5.652;2022-11-20T01:56:04;-3.00;99.90
43089;DHT22;28709;52.030;5.652;2022-11-20T01:58:33;-3.00;99.90
43089;DHT22;28709;52.030;5.652;2022-11-20T02:01:00;-3.10;99.90
43089;DHT22;28709;52.030;5.652;2022-11-20T02:03:27;-3.00;99.90
43089;DHT22;28709;52.030;5.652;2022-11-20T02:06:10;-3.10;99.90
43089;DHT22;28709;52.030;5.652;2022-11-20T02:08:38;-3.10;99.90
43089;DHT22;28709;52.030;5.652;2022-11-20T02:11:04;-3.10;99.90
43089;DHT22;28709;52.030;5.652;2022-11-20T02:13:29;-3.10;99.90
43089;DHT22;28709;52.030;5.652;2022-11-20T02:16:16;-3.10;99.90
43089;DHT22;28709;52.030;5.652;2022-11-20T02:18:44;-3.20;99.90
43089;DHT22;28709;52.030;5.652;2022-11-20T02:21:37;-3.20;99.90
43089;DHT22;28709;52.030;5.652;2022-11-20T02:26:44;-3.20;99.90
43089;DHT22;28709;52.030;5.652;2022-11-20T02:29:11;-3.20;99.90
43089;DHT22;28709;52.030;5.652;2022-11-20T02:31:40;-3.20;99.90
43089;DHT22;28709;52.030;5.652;2022-11-20T02:34:06;-3.10;99.90
43089;DHT22;28709;52.030;5.652;2022-11-20T02:36:33;-3.20;99.90
43089;DHT22;28709;52.030;5.652;2022-11-20T02:39:01;-3.20;99.90
43089;DHT22;28709;52.030;5.652;2022-11-20T02:41:34;-3.20;99.90
43089;DHT22;28709;52.030;5.652;2022-11-20T02:44:00;-3.20;99.90
43089;DHT22;28709;52.030;5.652;2022-11-20T02:46:26;-3.20;99.90
43089;DHT22;28709;52.030;5.652;2022-11-20T02:48:51;-3.30;99.90
43089;DHT22;28709;52.030;5.652;2022-11-20T02:51:17;-3.20;99.90
43089;DHT22;28709;52.030;5.652;2022-11-20T02:53:43;-3.30;99.90
43089;DHT22;28709;52.030;5.652;2022-11-20T02:56:08;-3.30;99.90
43089;DHT22;28709;52.030;5.652;2022-11-20T02:58:34;-3.40;99.90
43089;DHT22;28709;52.030;5.652;2022-11-20T03:00:59;-3.40;99.90
43089;DHT22;28709;52.030;5.652;2022-11-20T03:03:25;-3.40;99.90
43089;DHT22;28709;52.030;5.652;2022-11-20T03:05:51;-3.40;99.90
43089;DHT22;28709;52.030;5.652;2022-11-20T03:08:16;-3.50;99.90
43089;DHT22;28709;52.030;5.652;2022-11-20T03:10:42;-3.50;99.90
43089;DHT22;28709;52.030;5.652;2022-11-20T03:13:07;-3.50;99.90
43089;DHT22;28709;52.030;5.652;2022-11-20T03:15:33;-3.50;99.90
43089;DHT22;28709;52.030;5.652;2022-11-20T03:18:00;-3.40;99.90
43089;DHT22;28709;52.030;5.652;2022-11-20T03:20:26;-3.50;99.90
43089;DHT22;28709;52.030;5.652;2022-11-20T03:22:53;-3.50;99.90
43089;DHT22;28709;52.030;5.652;2022-11-20T03:25:19;-3.50;99.90
43089;DHT22;28709;52.030;5.652;2022-11-20T03:27:45;-3.50;99.90
43089;DHT22;28709;52.030;5.652;2022-11-20T03:30:10;-3.50;99.90
43089;DHT22;28709;52.030;5.652;2022-11-20T03:32:36;-3.50;99.90
43089;DHT22;28709;52.030;5.652;2022-11-20T03:35:02;-3.50;99.90
43089;DHT22;28709;52.030;5.652;2022-11-20T03:37:28;-3.50;99.90
43089;DHT22;28709;52.030;5.652;2022-11-20T03:39:53;-3.50;99.90
43089;DHT22;28709;52.030;5.652;2022-11-20T03:42:19;-3.50;99.90
43089;DHT22;28709;52.030;5.652;2022-11-20T03:45:04;-3.50;99.90
43089;DHT22;28709;52.030;5.652;2022-11-20T03:47:30;-3.60;99.90
43089;DHT22;28709;52.030;5.652;2022-11-20T03:49:55;-3.50;99.90
43089;DHT22;28709;52.030;5.652;2022-11-20T03:52:21;-3.50;99.90
43089;DHT22;28709;52.030;5.652;2022-11-20T03:54:46;-3.50;99.90
43089;DHT22;28709;52.030;5.652;2022-11-20T03:57:12;-3.50;99.90
43089;DHT22;28709;52.030;5.652;2022-11-20T03:59:38;-3.50;99.90
43089;DHT22;28709;52.030;5.652;2022-11-20T04:02:03;-3.50;99.90
43089;DHT22;28709;52.030;5.652;2022-11-20T04:04:29;-3.50;99.90
43089;DHT22;28709;52.030;5.652;2022-11-20T04:06:54;-3.50;99.90
43089;DHT22;28709;52.030;5.652;2022-11-20T04:09:20;-3.50;99.90
43089;DHT22;28709;52.030;5.652;2022-11-20T04:11:46;-3.50;99.90
43089;DHT22;28709;52.030;5.652;2022-11-20T04:14:15;-3.60;99.90
43089;DHT22;28709;52.030;5.652;2022-11-20T04:16:42;-3.70;99.90
43089;DHT22;28709;52.030;5.652;2022-11-20T04:19:10;-3.70;99.90
43089;DHT22;28709;52.030;5.652;2022-11-20T04:21:37;-3.70;99.90
43089;DHT22;28709;52.030;5.652;2022-11-20T04:24:03;-3.70;99.90
43089;DHT22;28709;52.030;5.652;2022-11-20T04:26:29;-3.70;99.90
43089;DHT22;28709;52.030;5.652;2022-11-20T04:28:56;-3.70;99.90
43089;DHT22;28709;52.030;5.652;2022-11-20T04:31:24;-3.70;99.90
43089;DHT22;28709;52.030;5.652;2022-11-20T04:33:51;-3.80;99.90
43089;DHT22;28709;52.030;5.652;2022-11-20T04:36:19;-3.70;99.90
43089;DHT22;28709;52.030;5.652;2022-11-20T04:38:45;-3.70;99.90
43089;DHT22;28709;52.030;5.652;2022-11-20T04:41:20;-3.70;99.90
43089;DHT22;28709;52.030;5.652;2022-11-20T04:43:51;-3.80;99.90
43089;DHT22;28709;52.030;5.652;2022-11-20T04:46:18;-3.80;99.90
43089;DHT22;28709;52.030;5.652;2022-11-20T04:48:45;-3.90;99.90
43089;DHT22;28709;52.030;5.652;2022-11-20T04:51:11;-3.90;99.90
43089;DHT22;28709;52.030;5.652;2022-11-20T04:53:36;-4.00;99.90
43089;DHT22;28709;52.030;5.652;2022-11-20T04:56:05;-4.00;99.90
43089;DHT22;28709;52.030;5.652;2022-11-20T04:58:31;-4.00;99.90
43089;DHT22;28709;52.030;5.652;2022-11-20T05:01:40;-4.00;99.90
43089;DHT22;28709;52.030;5.652;2022-11-20T05:03:59;-4.10;99.90
43089;DHT22;28709;52.030;5.652;2022-11-20T05:06:25;-4.10;99.90
43089;DHT22;28709;52.030;5.652;2022-11-20T05:08:50;-4.10;99.90
43089;DHT22;28709;52.030;5.652;2022-11-20T05:11:19;-4.10;99.90
43089;DHT22;28709;52.030;5.652;2022-11-20T05:13:44;-4.10;99.90
43089;DHT22;28709;52.030;5.652;2022-11-20T05:16:21;-4.10;99.90
43089;DHT22;28709;52.030;5.652;2022-11-20T05:18:47;-4.20;99.90
43089;DHT22;28709;52.030;5.652;2022-11-20T05:21:13;-4.20;99.90
43089;DHT22;28709;52.030;5.652;2022-11-20T05:23:39;-4.20;99.90
43089;DHT22;28709;52.030;5.652;2022-11-20T05:26:07;-4.20;99.90
43089;DHT22;28709;52.030;5.652;2022-11-20T05:28:34;-4.20;99.90
43089;DHT22;28709;52.030;5.652;2022-11-20T05:31:10;-4.30;99.90
43089;DHT22;28709;52.030;5.652;2022-11-20T05:33:36;-4.30;99.90
43089;DHT22;28709;52.030;5.652;2022-11-20T05:36:03;-4.30;99.90
43089;DHT22;28709;52.030;5.652;2022-11-20T05:38:29;-4.30;99.90
43089;DHT22;28709;52.030;5.652;2022-11-20T05:41:02;-4.30;99.90
43089;DHT22;28709;52.030;5.652;2022-11-20T05:43:27;-4.30;99.90
43089;DHT22;28709;52.030;5.652;2022-11-20T05:45:54;-4.30;99.90
43089;DHT22;28709;52.030;5.652;2022-11-20T05:48:20;-4.30;99.90
43089;DHT22;28709;52.030;5.652;2022-11-20T05:50:46;-4.30;99.90
43089;DHT22;28709;52.030;5.652;2022-11-20T05:53:12;-4.30;99.90
43089;DHT22;28709;52.030;5.652;2022-11-20T05:55:38;-4.30;99.90
43089;DHT22;28709;52.030;5.652;2022-11-20T05:58:03;-4.30;99.90
43089;DHT22;28709;52.030;5.652;2022-11-20T06:00:29;-4.30;99.90
43089;DHT22;28709;52.030;5.652;2022-11-20T06:02:54;-4.30;99.90
43089;DHT22;28709;52.030;5.652;2022-11-20T06:05:20;-4.30;99.90
43089;DHT22;28709;52.030;5.652;2022-11-20T06:07:45;-4.30;99.90
43089;DHT22;28709;52.030;5.652;2022-11-20T06:10:11;-4.30;99.90
43089;DHT22;28709;52.030;5.652;2022-11-20T06:12:37;-4.30;99.90
43089;DHT22;28709;52.030;5.652;2022-11-20T06:15:04;-4.30;99.90
43089;DHT22;28709;52.030;5.652;2022-11-20T06:17:29;-4.30;99.90
43089;DHT22;28709;52.030;5.652;2022-11-20T06:19:55;-4.30;99.90
43089;DHT22;28709;52.030;5.652;2022-11-20T06:22:21;-4.30;99.90
43089;DHT22;28709;52.030;5.652;2022-11-20T06:24:46;-4.30;99.90
43089;DHT22;28709;52.030;5.652;2022-11-20T06:27:12;-4.30;99.90
43089;DHT22;28709;52.030;5.652;2022-11-20T06:29:38;-4.30;99.90
43089;DHT22;28709;52.030;5.652;2022-11-20T06:32:03;-4.20;99.90
43089;DHT22;28709;52.030;5.652;2022-11-20T06:34:29;-4.20;99.90
43089;DHT22;28709;52.030;5.652;2022-11-20T06:36:55;-4.20;99.90
43089;DHT22;28709;52.030;5.652;2022-11-20T06:39:20;-4.10;99.90
43089;DHT22;28709;52.030;5.652;2022-11-20T06:41:46;-4.10;99.90
43089;DHT22;28709;52.030;5.652;2022-11-20T06:44:11;-4.10;99.90
43089;DHT22;28709;52.030;5.652;2022-11-20T06:46:37;-4.10;99.90
43089;DHT22;28709;52.030;5.652;2022-11-20T06:49:03;-4.10;99.90
43089;DHT22;28709;52.030;5.652;2022-11-20T06:51:28;-4.00;99.90
43089;DHT22;28709;52.030;5.652;2022-11-20T06:53:54;-4.00;99.90
43089;DHT22;28709;52.030;5.652;2022-11-20T06:56:20;-4.00;99.90
43089;DHT22;28709;52.030;5.652;2022-11-20T06:58:45;-4.00;99.90
43089;DHT22;28709;52.030;5.652;2022-11-20T07:01:13;-4.00;99.90
43089;DHT22;28709;52.030;5.652;2022-11-20T07:03:40;-4.10;99.90
43089;DHT22;28709;52.030;5.652;2022-11-20T07:06:06;-4.10;99.90
43089;DHT22;28709;52.030;5.652;2022-11-20T07:08:32;-4.10;99.90
43089;DHT22;28709;52.030;5.652;2022-11-20T07:11:02;-4.00;99.90
43089;DHT22;28709;52.030;5.652;2022-11-20T07:13:28;-4.00;99.90
43089;DHT22;28709;52.030;5.652;2022-11-20T07:15:54;-4.00;99.90
43089;DHT22;28709;52.030;5.652;2022-11-20T07:18:20;-3.90;99.90
43089;DHT22;28709;52.030;5.652;2022-11-20T07:20:46;-3.90;99.90
43089;DHT22;28709;52.030;5.652;2022-11-20T07:23:11;-3.90;99.90
43089;DHT22;28709;52.030;5.652;2022-11-20T07:25:37;-3.90;99.90
43089;DHT22;28709;52.030;5.652;2022-11-20T07:28:03;-3.90;99.90
43089;DHT22;28709;52.030;5.652;2022-11-20T07:30:29;-3.80;99.90
43089;DHT22;28709;52.030;5.652;2022-11-20T07:32:56;-3.80;99.90
43089;DHT22;28709;52.030;5.652;2022-11-20T07:35:22;-3.70;99.90
43089;DHT22;28709;52.030;5.652;2022-11-20T07:37:48;-3.70;99.90
43089;DHT22;28709;52.030;5.652;2022-11-20T07:40:15;-3.60;99.90
43089;DHT22;28709;52.030;5.652;2022-11-20T07:42:54;-3.60;99.90
43089;DHT22;28709;52.030;5.652;2022-11-20T07:45:22;-3.50;99.90
43089;DHT22;28709;52.030;5.652;2022-11-20T07:47:48;-3.40;99.90
43089;DHT22;28709;52.030;5.652;2022-11-20T07:50:15;-3.30;99.90
43089;DHT22;28709;52.030;5.652;2022-11-20T07:52:41;-3.20;99.90
43089;DHT22;28709;52.030;5.652;2022-11-20T07:55:08;-3.10;99.90
43089;DHT22;28709;52.030;5.652;2022-11-20T07:57:33;-3.00;99.90
43089;DHT22;28709;52.030;5.652;2022-11-20T07:59:59;-2.90;99.90
43089;DHT22;28709;52.030;5.652;2022-11-20T08:02:25;-2.80;99.90
43089;DHT22;28709;52.030;5.652;2022-11-20T08:04:51;-2.70;99.90
43089;DHT22;28709;52.030;5.652;2022-11-20T08:07:17;-2.60;99.90
43089;DHT22;28709;52.030;5.652;2022-11-20T08:09:43;-2.40;99.90
43089;DHT22;28709;52.030;5.652;2022-11-20T08:12:17;-2.30;99.90
43089;DHT22;28709;52.030;5.652;2022-11-20T08:15:02;-2.30;99.90
43089;DHT22;28709;52.030;5.652;2022-11-20T08:17:28;-2.20;99.90
43089;DHT22;28709;52.030;5.652;2022-11-20T08:19:54;-2.10;99.90
43089;DHT22;28709;52.030;5.652;2022-11-20T08:22:19;-2.00;99.90
43089;DHT22;28709;52.030;5.652;2022-11-20T08:24:46;-2.00;99.90
43089;DHT22;28709;52.030;5.652;2022-11-20T08:27:11;-1.90;99.90
43089;DHT22;28709;52.030;5.652;2022-11-20T08:29:37;-1.80;99.90
43089;DHT22;28709;52.030;5.652;2022-11-20T08:32:03;-1.70;99.90
43089;DHT22;28709;52.030;5.652;2022-11-20T08:34:28;-1.60;99.90
43089;DHT22;28709;52.030;5.652;2022-11-20T08:36:54;-1.60;99.90
43089;DHT22;28709;52.030;5.652;2022-11-20T08:39:19;-1.50;99.90
43089;DHT22;28709;52.030;5.652;2022-11-20T08:41:46;-1.40;99.90
43089;DHT22;28709;52.030;5.652;2022-11-20T08:44:11;-1.30;99.90
43089;DHT22;28709;52.030;5.652;2022-11-20T08:46:39;-1.20;99.90
43089;DHT22;28709;52.030;5.652;2022-11-20T08:49:08;-1.00;99.90
43089;DHT22;28709;52.030;5.652;2022-11-20T08:51:34;-1.00;99.90
43089;DHT22;28709;52.030;5.652;2022-11-20T08:54:00;-0.90;99.90
43089;DHT22;28709;52.030;5.652;2022-11-20T08:56:26;-0.80;99.90
43089;DHT22;28709;52.030;5.652;2022-11-20T08:58:52;-0.80;99.90
43089;DHT22;28709;52.030;5.652;2022-11-20T09:01:19;-0.80;99.90
43089;DHT22;28709;52.030;5.652;2022-11-20T09:03:45;-0.80;99.90
43089;DHT22;28709;52.030;5.652;2022-11-20T09:06:11;-0.70;99.90
43089;DHT22;28709;52.030;5.652;2022-11-20T09:08:37;-0.70;99.90
43089;DHT22;28709;52.030;5.652;2022-11-20T09:11:03;-0.70;99.90
43089;DHT22;28709;52.030;5.652;2022-11-20T09:13:29;-0.60;99.90
43089;DHT22;28709;52.030;5.652;2022-11-20T09:15:58;-0.60;99.90
43089;DHT22;28709;52.030;5.652;2022-11-20T09:18:25;-0.50;99.90
43089;DHT22;28709;52.030;5.652;2022-11-20T09:20:51;-0.50;99.90
43089;DHT22;28709;52.030;5.652;2022-11-20T09:23:16;-0.50;99.90
43089;DHT22;28709;52.030;5.652;2022-11-20T09:25:42;-0.50;99.90
43089;DHT22;28709;52.030;5.652;2022-11-20T09:28:08;-0.40;99.90
43089;DHT22;28709;52.030;5.652;2022-11-20T09:30:34;-0.40;99.90
43089;DHT22;28709;52.030;5.652;2022-11-20T09:33:01;-0.30;99.90
43089;DHT22;28709;52.030;5.652;2022-11-20T09:35:26;-0.30;99.90
43089;DHT22;28709;52.030;5.652;2022-11-20T09:37:52;-0.20;99.90
43089;DHT22;28709;52.030;5.652;2022-11-20T09:40:23;-0.20;99.90
43089;DHT22;28709;52.030;5.652;2022-11-20T09:43:12;-0.10;99.90
43089;DHT22;28709;52.030;5.652;2022-11-20T09:46:07;0.00;99.90
43089;DHT22;28709;52.030;5.652;2022-11-20T09:51:40;0.20;99.90
43089;DHT22;28709;52.030;5.652;2022-11-20T09:54:17;0.30;99.90
43089;DHT22;28709;52.030;5.652;2022-11-20T09:57:05;0.40;99.90
43089;DHT22;28709;52.030;5.652;2022-11-20T10:02:18;0.50;99.90
43089;DHT22;28709;52.030;5.652;2022-11-20T10:13:24;0.70;99.90
43089;DHT22;28709;52.030;5.652;2022-11-20T10:22:05;0.80;99.90
43089;DHT22;28709;52.030;5.652;2022-11-20T10:27:33;0.90;99.90
43089;DHT22;28709;52.030;5.652;2022-11-20T10:30:23;1.00;99.90
43089;DHT22;28709;52.030;5.652;2022-11-20T10:33:04;1.20;99.90
43089;DHT22;28709;52.030;5.652;2022-11-20T10:35:39;1.40;99.90
43089;DHT22;28709;52.030;5.652;2022-11-20T10:38:17;1.70;99.90
43089;DHT22;28709;52.030;5.652;2022-11-20T10:41:00;1.90;99.90
43089;DHT22;28709;52.030;5.652;2022-11-20T10:43:46;2.00;99.90
43089;DHT22;28709;52.030;5.652;2022-11-20T10:46:18;2.10;99.90
43089;DHT22;28709;52.030;5.652;2022-11-20T10:48:46;2.20;99.90
43089;DHT22;28709;52.030;5.652;2022-11-20T10:51:42;2.30;99.90
43089;DHT22;28709;52.030;5.652;2022-11-20T10:56:53;2.40;99.90
43089;DHT22;28709;52.030;5.652;2022-11-20T11:01:53;2.50;99.90
43089;DHT22;28709;52.030;5.652;2022-11-20T11:04:40;2.50;99.90
43089;DHT22;28709;52.030;5.652;2022-11-20T11:07:16;2.60;99.90
43089;DHT22;28709;52.030;5.652;2022-11-20T11:09:53;2.70;99.90
43089;DHT22;28709;52.030;5.652;2022-11-20T11:12:21;2.80;99.90
43089;DHT22;28709;52.030;5.652;2022-11-20T11:14:53;2.80;99.90
43089;DHT22;28709;52.030;5.652;2022-11-20T11:17:28;2.80;99.90
43089;DHT22;28709;52.030;5.652;2022-11-20T11:22:29;2.90;99.90
43089;DHT22;28709;52.030;5.652;2022-11-20T11:24:55;2.90;99.90
43089;DHT22;28709;52.030;5.652;2022-11-20T11:27:21;3.00;99.90
43089;DHT22;28709;52.030;5.652;2022-11-20T11:29:47;3.00;99.90
43089;DHT22;28709;52.030;5.652;2022-11-20T11:34:38;3.00;99.90
43089;DHT22;28709;52.030;5.652;2022-11-20T11:37:04;3.00;99.90
43089;DHT22;28709;52.030;5.652;2022-11-20T11:39:32;3.00;99.90
43089;DHT22;28709;52.030;5.652;2022-11-20T11:42:00;3.00;99.90
43089;DHT22;28709;52.030;5.652;2022-11-20T11:44:30;2.90;99.90
43089;DHT22;28709;52.030;5.652;2022-11-20T11:47:36;2.90;99.90
43089;DHT22;28709;52.030;5.652;2022-11-20T11:52:46;2.80;99.90
43089;DHT22;28709;52.030;5.652;2022-11-20T12:03:38;2.50;99.90
43089;DHT22;28709;52.030;5.652;2022-11-20T12:06:17;2.50;99.90
43089;DHT22;28709;52.030;5.652;2022-11-20T12:08:44;2.50;99.90
43089;DHT22;28709;52.030;5.652;2022-11-20T12:11:37;2.50;99.90
43089;DHT22;28709;52.030;5.652;2022-11-20T12:14:33;2.50;99.90
43089;DHT22;28709;52.030;5.652;2022-11-20T12:17:01;2.50;99.90
43089;DHT22;28709;52.030;5.652;2022-11-20T12:19:30;2.50;99.90
43089;DHT22;28709;52.030;5.652;2022-11-20T12:55:21;2.60;99.90
43089;DHT22;28709;52.030;5.652;2022-11-20T13:00:39;2.50;99.90
43089;DHT22;28709;52.030;5.652;2022-11-20T13:06:18;2.40;99.90
43089;DHT22;28709;52.030;5.652;2022-11-20T13:08:51;2.40;99.90
43089;DHT22;28709;52.030;5.652;2022-11-20T13:11:37;2.30;99.90
43089;DHT22;28709;52.030;5.652;2022-11-20T13:14:17;2.30;99.90
43089;DHT22;28709;52.030;5.652;2022-11-20T13:17:16;2.30;99.90
43089;DHT22;28709;52.030;5.652;2022-11-20T13:19:52;2.20;99.90
43089;DHT22;28709;52.030;5.652;2022-11-20T13:22:48;2.30;99.90
43089;DHT22;28709;52.030;5.652;2022-11-20T13:25:26;2.30;99.90
43089;DHT22;28709;52.030;5.652;2022-11-20T13:27:52;2.20;99.90
43089;DHT22;28709;52.030;5.652;2022-11-20T13:30:20;2.20;99.90
43089;DHT22;28709;52.030;5.652;2022-11-20T13:32:54;2.30;99.90
43089;DHT22;28709;52.030;5.652;2022-11-20T13:38:13;2.30;99.90
43089;DHT22;28709;52.030;5.652;2022-11-20T13:41:00;2.30;99.90
43089;DHT22;28709;52.030;5.652;2022-11-20T13:43:47;2.30;99.90
43089;DHT22;28709;52.030;5.652;2022-11-20T13:46:13;2.30;99.90
43089;DHT22;28709;52.030;5.652;2022-11-20T13:48:44;2.30;99.90
43089;DHT22;28709;52.030;5.652;2022-11-20T14:01:45;2.40;99.90
43089;DHT22;28709;52.030;5.652;2022-11-20T14:04:18;2.40;99.90
43089;DHT22;28709;52.030;5.652;2022-11-20T14:06:46;2.50;99.90
43089;DHT22;28709;52.030;5.652;2022-11-20T14:09:26;2.50;99.90
43089;DHT22;28709;52.030;5.652;2022-11-20T14:11:52;2.50;99.90
43089;DHT22;28709;52.030;5.652;2022-11-20T14:14:20;2.50;99.90
43089;DHT22;28709;52.030;5.652;2022-11-20T14:16:47;2.50;99.90
43089;DHT22;28709;52.030;5.652;2022-11-20T14:19:29;2.50;99.90
43089;DHT22;28709;52.030;5.652;2022-11-20T14:22:19;2.50;99.90
43089;DHT22;28709;52.030;5.652;2022-11-20T14:24:45;2.50;99.90
43089;DHT22;28709;52.030;5.652;2022-11-20T14:27:19;2.50;99.90
43089;DHT22;28709;52.030;5.652;2022-11-20T14:29:47;2.50;99.90
43089;DHT22;28709;52.030;5.652;2022-11-20T14:32:17;2.60;99.90
43089;DHT22;28709;52.030;5.652;2022-11-20T14:34:46;2.50;99.90
43089;DHT22;28709;52.030;5.652;2022-11-20T14:37:19;2.50;99.90
43089;DHT22;28709;52.030;5.652;2022-11-20T14:39:53;2.50;99.90
43089;DHT22;28709;52.030;5.652;2022-11-20T14:42:30;2.60;99.90
43089;DHT22;28709;52.030;5.652;2022-11-20T14:44:57;2.60;99.90
43089;DHT22;28709;52.030;5.652;2022-11-20T14:47:26;2.60;99.90
43089;DHT22;28709;52.030;5.652;2022-11-20T14:49:53;2.60;99.90
43089;DHT22;28709;52.030;5.652;2022-11-20T14:52:25;2.60;99.90
43089;DHT22;28709;52.030;5.652;2022-11-20T14:57:29;2.60;99.90
43089;DHT22;28709;52.030;5.652;2022-11-20T15:00:06;2.60;99.90
43089;DHT22;28709;52.030;5.652;2022-11-20T15:02:33;2.60;99.90
43089;DHT22;28709;52.030;5.652;2022-11-20T15:05:00;2.60;99.90
43089;DHT22;28709;52.030;5.652;2022-11-20T15:10:08;2.50;99.90
43089;DHT22;28709;52.030;5.652;2022-11-20T15:12:38;2.50;99.90
43089;DHT22;28709;52.030;5.652;2022-11-20T15:15:08;2.50;99.90
43089;DHT22;28709;52.030;5.652;2022-11-20T15:17:37;2.50;99.90
43089;DHT22;28709;52.030;5.652;2022-11-20T15:20:09;2.50;99.90
43089;DHT22;28709;52.030;5.652;2022-11-20T15:22:37;2.50;99.90
43089;DHT22;28709;52.030;5.652;2022-11-20T15:25:11;2.50;99.90
43089;DHT22;28709;52.030;5.652;2022-11-20T15:27:37;2.50;99.90
43089;DHT22;28709;52.030;5.652;2022-11-20T15:30:12;2.50;99.90
43089;DHT22;28709;52.030;5.652;2022-11-20T15:32:39;2.60;99.90
43089;DHT22;28709;52.030;5.652;2022-11-20T15:35:05;2.50;99.90
43089;DHT22;28709;52.030;5.652;2022-11-20T15:37:31;2.60;99.90
43089;DHT22;28709;52.030;5.652;2022-11-20T15:39:56;2.60;99.90
43089;DHT22;28709;52.030;5.652;2022-11-20T15:42:22;2.60;99.90
43089;DHT22;28709;52.030;5.652;2022-11-20T15:44:47;2.60;99.90
43089;DHT22;28709;52.030;5.652;2022-11-20T15:47:13;2.60;99.90
43089;DHT22;28709;52.030;5.652;2022-11-20T15:49:39;2.60;99.90
43089;DHT22;28709;52.030;5.652;2022-11-20T15:52:04;2.70;99.90
43089;DHT22;28709;52.030;5.652;2022-11-20T15:54:30;2.70;99.90
43089;DHT22;28709;52.030;5.652;2022-11-20T15:56:55;2.70;99.90
43089;DHT22;28709;52.030;5.652;2022-11-20T15:59:21;2.70;99.90
43089;DHT22;28709;52.030;5.652;2022-11-20T16:01:47;2.70;99.90
43089;DHT22;28709;52.030;5.652;2022-11-20T16:04:15;2.80;99.90
43089;DHT22;28709;52.030;5.652;2022-11-20T16:06:41;2.80;99.90
43089;DHT22;28709;52.030;5.652;2022-11-20T16:09:07;2.80;99.90
43089;DHT22;28709;52.030;5.652;2022-11-20T16:11:33;2.80;99.90
43089;DHT22;28709;52.030;5.652;2022-11-20T16:14:00;2.90;99.90
43089;DHT22;28709;52.030;5.652;2022-11-20T16:16:44;2.80;99.90
43089;DHT22;28709;52.030;5.652;2022-11-20T16:19:11;2.90;99.90
43089;DHT22;28709;52.030;5.652;2022-11-20T16:21:37;2.80;99.90
43089;DHT22;28709;52.030;5.652;2022-11-20T16:24:06;2.90;99.90
43089;DHT22;28709;52.030;5.652;2022-11-20T16:26:32;2.90;99.90
43089;DHT22;28709;52.030;5.652;2022-11-20T16:28:59;2.80;99.90
43089;DHT22;28709;52.030;5.652;2022-11-20T16:31:25;2.90;99.90
43089;DHT22;28709;52.030;5.652;2022-11-20T16:33:55;2.90;99.90
43089;DHT22;28709;52.030;5.652;2022-11-20T16:36:23;2.90;99.90
43089;DHT22;28709;52.030;5.652;2022-11-20T16:38:54;2.90;99.90
43089;DHT22;28709;52.030;5.652;2022-11-20T16:41:20;2.90;99.90
43089;DHT22;28709;52.030;5.652;2022-11-20T16:43:49;2.90;99.90
43089;DHT22;28709;52.030;5.652;2022-11-20T16:46:15;2.90;99.90
43089;DHT22;28709;52.030;5.652;2022-11-20T16:48:41;2.90;99.90
43089;DHT22;28709;52.030;5.652;2022-11-20T16:51:11;3.00;99.90
43089;DHT22;28709;52.030;5.652;2022-11-20T16:53:37;3.00;99.90
43089;DHT22;28709;52.030;5.652;2022-11-20T16:56:14;3.00;99.90
43089;DHT22;28709;52.030;5.652;2022-11-20T16:58:47;3.00;99.90
43089;DHT22;28709;52.030;5.652;2022-11-20T17:01:15;3.00;99.90
43089;DHT22;28709;52.030;5.652;2022-11-20T17:03:43;3.00;99.90
43089;DHT22;28709;52.030;5.652;2022-11-20T17:06:19;3.00;99.90
43089;DHT22;28709;52.030;5.652;2022-11-20T17:08:46;3.00;99.90
43089;DHT22;28709;52.030;5.652;2022-11-20T17:11:16;3.00;99.90
43089;DHT22;28709;52.030;5.652;2022-11-20T17:13:42;3.00;99.90
43089;DHT22;28709;52.030;5.652;2022-11-20T17:16:14;3.00;99.90
43089;DHT22;28709;52.030;5.652;2022-11-20T17:18:40;3.00;99.90
43089;DHT22;28709;52.030;5.652;2022-11-20T17:21:06;3.00;99.90
43089;DHT22;28709;52.030;5.652;2022-11-20T17:23:32;3.00;99.90
43089;DHT22;28709;52.030;5.652;2022-11-20T17:26:06;3.00;99.90
43089;DHT22;28709;52.030;5.652;2022-11-20T17:28:33;3.00;99.90
43089;DHT22;28709;52.030;5.652;2022-11-20T17:31:10;3.00;99.90
43089;DHT22;28709;52.030;5.652;2022-11-20T17:33:38;3.00;99.90
43089;DHT22;28709;52.030;5.652;2022-11-20T17:36:06;3.00;99.90
43089;DHT22;28709;52.030;5.652;2022-11-20T17:38:32;2.90;99.90
43089;DHT22;28709;52.030;5.652;2022-11-20T17:43:34;2.90;99.90